createdAt,value
2019-03-22T00:00:07.732Z,0.00
2019-03-22T00:01:18.436Z,0.00
2019-03-22T00:02:29.149Z,0.00
2019-03-22T00:03:39.866Z,0.00
2019-03-22T00:04:51.088Z,0.00
2019-03-22T00:06:01.815Z,0.00
2019-03-22T00:07:12.514Z,0.00
2019-03-22T00:08:23.222Z,0.00
2019-03-22T00:09:34.434Z,0.00
2019-03-22T00:10:45.151Z,0.00
2019-03-22T00:11:55.841Z,0.00
2019-03-22T00:13:06.580Z,0.00
2019-03-22T00:14:17.284Z,0.00
2019-03-22T00:15:27.979Z,0.00
2019-03-22T00:16:38.671Z,0.00
2019-03-22T00:17:50.055Z,0.00
2019-03-22T00:19:01.473Z,0.00
2019-03-22T00:20:12.176Z,0.00
2019-03-22T00:21:23.374Z,0.00
2019-03-22T00:22:34.573Z,0.00
2019-03-22T00:23:45.278Z,0.00
2019-03-22T00:24:55.999Z,0.00
2019-03-22T00:26:06.695Z,0.00
2019-03-22T00:27:17.896Z,0.00
2019-03-22T00:28:28.602Z,0.00
2019-03-22T00:29:39.306Z,0.00
2019-03-22T00:30:49.999Z,0.00
2019-03-22T00:32:01.199Z,0.00
2019-03-22T00:33:12.395Z,0.00
2019-03-22T00:34:23.114Z,0.00
2019-03-22T00:35:33.816Z,0.00
2019-03-22T00:36:45.014Z,0.00
2019-03-22T00:37:55.719Z,0.00
2019-03-22T00:39:06.404Z,0.00
2019-03-22T00:40:17.115Z,0.00
2019-03-22T00:41:28.297Z,0.00
2019-03-22T00:42:38.994Z,0.00
2019-03-22T00:43:50.194Z,0.00
2019-03-22T00:45:00.896Z,0.00
2019-03-22T00:46:11.602Z,0.00
2019-03-22T00:47:22.305Z,0.00
2019-03-22T00:48:32.995Z,0.00
2019-03-22T00:49:44.187Z,0.00
2019-03-22T00:50:54.892Z,0.00
2019-03-22T00:52:06.083Z,0.00
2019-03-22T00:53:17.291Z,0.00
2019-03-22T00:54:28.480Z,0.00
2019-03-22T00:55:39.684Z,0.00
2019-03-22T00:56:50.379Z,0.00
2019-03-22T00:58:01.620Z,0.00
2019-03-22T00:59:12.316Z,0.00
2019-03-22T01:00:23.018Z,0.00
2019-03-22T01:01:33.705Z,0.00
2019-03-22T01:02:44.409Z,0.00
2019-03-22T01:03:55.094Z,0.00
2019-03-22T01:05:05.794Z,0.00
2019-03-22T01:06:16.993Z,0.00
2019-03-22T01:07:27.685Z,0.00
2019-03-22T01:08:38.385Z,0.00
2019-03-22T01:09:49.080Z,0.00
2019-03-22T01:10:59.775Z,0.00
2019-03-22T01:12:10.465Z,0.00
2019-03-22T01:13:21.648Z,0.00
2019-03-22T01:14:32.352Z,0.00
2019-03-22T01:15:43.024Z,0.00
2019-03-22T01:16:53.718Z,0.00
2019-03-22T01:18:04.899Z,0.00
2019-03-22T01:19:15.585Z,0.00
2019-03-22T01:20:26.261Z,0.00
2019-03-22T01:21:37.457Z,0.00
2019-03-22T01:22:48.143Z,0.00
2019-03-22T01:24:00.059Z,0.00
2019-03-22T01:25:10.015Z,0.00
2019-03-22T01:26:20.709Z,0.00
2019-03-22T01:27:40.451Z,0.00
2019-03-22T01:28:42.633Z,0.00
2019-03-22T01:29:53.787Z,0.00
2019-03-22T01:31:05.647Z,0.00
2019-03-22T01:32:16.343Z,0.00
2019-03-22T01:33:27.038Z,0.00
2019-03-22T01:34:37.712Z,0.00
2019-03-22T01:35:48.405Z,0.00
2019-03-22T01:37:00.092Z,0.00
2019-03-22T01:38:10.774Z,0.00
2019-03-22T01:39:21.630Z,0.00
2019-03-22T01:40:32.814Z,0.00
2019-03-22T01:41:43.519Z,0.00
2019-03-22T01:42:54.192Z,0.00
2019-03-22T01:44:04.880Z,0.00
2019-03-22T01:45:15.563Z,0.00
2019-03-22T01:46:26.234Z,0.00
2019-03-22T01:47:37.409Z,0.00
2019-03-22T01:48:48.598Z,0.00
2019-03-22T01:49:59.278Z,0.00
2019-03-22T01:51:09.960Z,0.00
2019-03-22T01:52:20.642Z,0.00
2019-03-22T01:53:31.820Z,0.00
2019-03-22T01:54:42.499Z,0.00
2019-03-22T01:55:53.676Z,0.00
2019-03-22T01:57:04.368Z,0.00
2019-03-22T01:58:15.050Z,0.00
2019-03-22T01:59:26.238Z,0.00
2019-03-22T02:00:37.407Z,0.00
2019-03-22T02:01:48.094Z,0.00
2019-03-22T02:02:58.781Z,0.00
2019-03-22T02:04:09.952Z,0.00
2019-03-22T02:05:20.626Z,0.00
2019-03-22T02:06:31.306Z,0.00
2019-03-22T02:07:42.495Z,0.00
2019-03-22T02:08:53.188Z,0.00
2019-03-22T02:10:03.851Z,0.00
2019-03-22T02:11:15.014Z,0.00
2019-03-22T02:12:25.693Z,0.00
2019-03-22T02:13:36.365Z,0.00
2019-03-22T02:14:47.058Z,0.00
2019-03-22T02:15:57.718Z,0.00
2019-03-22T02:17:08.402Z,0.00
2019-03-22T02:18:19.080Z,0.00
2019-03-22T02:19:29.753Z,0.00
2019-03-22T02:20:40.431Z,0.00
2019-03-22T02:21:51.108Z,0.00
2019-03-22T02:23:01.794Z,0.00
2019-03-22T02:24:12.470Z,0.00
2019-03-22T02:25:23.178Z,0.00
2019-03-22T02:26:34.344Z,0.00
2019-03-22T02:27:45.023Z,0.00
2019-03-22T02:28:55.702Z,0.00
2019-03-22T02:30:06.871Z,0.00
2019-03-22T02:31:18.034Z,0.00
2019-03-22T02:32:28.706Z,0.00
2019-03-22T02:33:39.388Z,0.00
2019-03-22T02:34:50.051Z,0.00
2019-03-22T02:36:01.220Z,0.00
2019-03-22T02:37:11.888Z,0.00
2019-03-22T02:38:23.088Z,0.00
2019-03-22T02:39:33.829Z,0.00
2019-03-22T02:40:44.428Z,0.00
2019-03-22T02:41:55.099Z,0.00
2019-03-22T02:43:05.786Z,0.00
2019-03-22T02:44:16.949Z,0.00
2019-03-22T02:45:28.117Z,0.00
2019-03-22T02:46:38.790Z,0.00
2019-03-22T02:47:49.647Z,0.00
2019-03-22T02:49:00.311Z,0.00
2019-03-22T02:50:18.486Z,0.00
2019-03-22T02:51:22.286Z,0.00
2019-03-22T02:52:32.951Z,0.00
2019-03-22T02:53:43.621Z,0.00
2019-03-22T02:54:54.293Z,0.00
2019-03-22T02:56:05.098Z,0.00
2019-03-22T02:57:15.640Z,0.00
2019-03-22T02:58:26.796Z,0.00
2019-03-22T02:59:37.485Z,0.00
2019-03-22T03:00:48.656Z,0.00
2019-03-22T03:01:59.817Z,0.00
2019-03-22T03:03:10.477Z,0.00
2019-03-22T03:04:21.215Z,0.00
2019-03-22T03:05:31.820Z,0.00
2019-03-22T03:06:42.498Z,0.00
2019-03-22T03:07:53.166Z,0.00
2019-03-22T03:09:03.856Z,0.00
2019-03-22T03:10:14.538Z,0.00
2019-03-22T03:11:25.194Z,0.00
2019-03-22T03:12:35.861Z,0.00
2019-03-22T03:13:46.519Z,0.00
2019-03-22T03:14:57.223Z,0.00
2019-03-22T03:16:07.898Z,0.00
2019-03-22T03:17:19.057Z,0.00
2019-03-22T03:18:29.725Z,0.00
2019-03-22T03:19:40.900Z,0.00
2019-03-22T03:20:52.057Z,0.00
2019-03-22T03:22:02.720Z,0.00
2019-03-22T03:23:13.477Z,0.00
2019-03-22T03:24:24.047Z,0.00
2019-03-22T03:25:34.722Z,0.00
2019-03-22T03:26:45.377Z,0.00
2019-03-22T03:27:56.041Z,0.00
2019-03-22T03:29:07.205Z,0.00
2019-03-22T03:30:18.445Z,0.00
2019-03-22T03:31:29.522Z,0.00
2019-03-22T03:32:40.190Z,0.00
2019-03-22T03:33:51.435Z,0.00
2019-03-22T03:35:02.079Z,0.00
2019-03-22T03:36:12.680Z,0.00
2019-03-22T03:37:23.341Z,0.00
2019-03-22T03:38:34.037Z,0.00
2019-03-22T03:39:45.155Z,0.00
2019-03-22T03:40:55.826Z,0.00
2019-03-22T03:42:06.495Z,0.00
2019-03-22T03:43:17.179Z,0.00
2019-03-22T03:44:27.831Z,0.00
2019-03-22T03:45:38.993Z,0.00
2019-03-22T03:46:50.157Z,0.00
2019-03-22T03:48:01.323Z,0.00
2019-03-22T03:49:12.498Z,0.00
2019-03-22T03:50:23.683Z,0.00
2019-03-22T03:51:34.334Z,0.00
2019-03-22T03:52:45.612Z,0.00
2019-03-22T03:53:56.587Z,0.00
2019-03-22T03:55:07.261Z,0.00
2019-03-22T03:56:17.927Z,0.00
2019-03-22T03:57:29.106Z,0.00
2019-03-22T03:58:51.698Z,0.00
2019-03-22T03:59:50.439Z,0.00
2019-03-22T04:01:01.307Z,0.00
2019-03-22T04:02:11.975Z,0.00
2019-03-22T04:03:22.648Z,0.00
2019-03-22T04:04:34.430Z,0.00
2019-03-22T04:05:45.635Z,0.00
2019-03-22T04:06:56.304Z,0.00
2019-03-22T04:08:06.964Z,0.00
2019-03-22T04:09:17.622Z,0.00
2019-03-22T04:10:28.281Z,0.00
2019-03-22T04:11:38.956Z,0.00
2019-03-22T04:12:50.129Z,0.00
2019-03-22T04:14:00.794Z,0.00
2019-03-22T04:15:12.959Z,0.00
2019-03-22T04:16:24.102Z,0.00
2019-03-22T04:17:34.769Z,0.00
2019-03-22T04:18:45.941Z,0.00
2019-03-22T04:19:56.581Z,0.00
2019-03-22T04:21:07.242Z,0.00
2019-03-22T04:22:17.914Z,0.00
2019-03-22T04:23:29.079Z,0.00
2019-03-22T04:24:40.230Z,0.00
2019-03-22T04:25:50.905Z,0.00
2019-03-22T04:27:02.056Z,0.00
2019-03-22T04:28:12.728Z,0.00
2019-03-22T04:29:23.402Z,0.00
2019-03-22T04:30:34.549Z,0.00
2019-03-22T04:31:45.712Z,0.00
2019-03-22T04:32:56.877Z,0.00
2019-03-22T04:34:08.051Z,0.00
2019-03-22T04:35:18.728Z,0.00
2019-03-22T04:36:29.389Z,0.00
2019-03-22T04:37:40.059Z,0.00
2019-03-22T04:38:51.205Z,0.00
2019-03-22T04:40:01.864Z,0.00
2019-03-22T04:41:12.518Z,0.00
2019-03-22T04:42:23.172Z,0.00
2019-03-22T04:43:33.837Z,0.00
2019-03-22T04:44:44.493Z,0.00
2019-03-22T04:45:55.142Z,0.00
2019-03-22T04:47:05.799Z,0.00
2019-03-22T04:48:16.463Z,0.00
2019-03-22T04:49:27.620Z,0.00
2019-03-22T04:50:38.267Z,0.00
2019-03-22T04:51:49.420Z,0.00
2019-03-22T04:53:00.090Z,0.00
2019-03-22T04:54:11.300Z,0.00
2019-03-22T04:55:22.891Z,0.00
2019-03-22T04:56:34.044Z,0.00
2019-03-22T04:57:44.706Z,0.00
2019-03-22T04:58:55.368Z,0.00
2019-03-22T05:00:06.518Z,0.00
2019-03-22T05:01:17.171Z,0.00
2019-03-22T05:02:27.833Z,0.00
2019-03-22T05:03:38.492Z,0.00
2019-03-22T05:04:49.641Z,0.00
2019-03-22T05:06:00.797Z,0.00
2019-03-22T05:07:11.615Z,0.00
2019-03-22T05:08:22.277Z,0.00
2019-03-22T05:09:32.931Z,0.00
2019-03-22T05:10:43.586Z,0.00
2019-03-22T05:11:54.241Z,0.00
2019-03-22T05:13:04.908Z,0.00
2019-03-22T05:14:16.054Z,0.00
2019-03-22T05:15:27.209Z,0.00
2019-03-22T05:16:37.898Z,0.00
2019-03-22T05:17:48.506Z,0.00
2019-03-22T05:18:59.163Z,0.00
2019-03-22T05:20:09.812Z,0.00
2019-03-22T05:21:20.467Z,5.63
2019-03-22T05:22:31.136Z,5.63
2019-03-22T05:23:41.815Z,5.63
2019-03-22T05:24:52.461Z,5.63
2019-03-22T05:26:03.118Z,5.63
2019-03-22T05:27:13.772Z,5.63
2019-03-22T05:28:24.917Z,11.25
2019-03-22T05:29:38.734Z,11.25
2019-03-22T05:30:46.722Z,11.25
2019-03-22T05:31:57.374Z,11.25
2019-03-22T05:33:08.038Z,16.88
2019-03-22T05:34:19.187Z,16.88
2019-03-22T05:35:29.836Z,16.88
2019-03-22T05:36:40.503Z,22.50
2019-03-22T05:37:51.661Z,22.50
2019-03-22T05:39:02.319Z,28.13
2019-03-22T05:40:12.991Z,28.13
2019-03-22T05:41:23.632Z,28.13
2019-03-22T05:42:34.293Z,33.75
2019-03-22T05:43:45.616Z,33.75
2019-03-22T05:44:56.270Z,39.38
2019-03-22T05:46:06.922Z,39.38
2019-03-22T05:47:17.593Z,39.38
2019-03-22T05:48:28.734Z,45.00
2019-03-22T05:49:39.895Z,45.00
2019-03-22T05:50:50.557Z,45.00
2019-03-22T05:52:02.207Z,50.63
2019-03-22T05:53:12.896Z,50.63
2019-03-22T05:54:24.058Z,56.25
2019-03-22T05:55:35.216Z,56.25
2019-03-22T05:56:46.357Z,56.25
2019-03-22T05:57:57.627Z,61.88
2019-03-22T05:59:08.773Z,61.88
2019-03-22T06:00:19.941Z,61.88
2019-03-22T06:01:31.089Z,61.88
2019-03-22T06:02:41.747Z,67.50
2019-03-22T06:03:52.403Z,67.50
2019-03-22T06:05:03.077Z,67.50
2019-03-22T06:06:14.270Z,67.50
2019-03-22T06:07:25.426Z,73.13
2019-03-22T06:08:36.079Z,73.13
2019-03-22T06:09:46.740Z,73.13
2019-03-22T06:10:57.409Z,78.75
2019-03-22T06:12:08.066Z,78.75
2019-03-22T06:13:18.720Z,78.75
2019-03-22T06:14:29.393Z,78.75
2019-03-22T06:15:40.071Z,78.75
2019-03-22T06:16:51.230Z,78.75
2019-03-22T06:18:01.895Z,78.75
2019-03-22T06:19:12.556Z,84.38
2019-03-22T06:20:24.227Z,84.38
2019-03-22T06:21:34.884Z,84.38
2019-03-22T06:22:45.540Z,90.00
2019-03-22T06:23:56.199Z,90.00
2019-03-22T06:25:07.356Z,95.63
2019-03-22T06:26:18.026Z,95.63
2019-03-22T06:27:28.718Z,95.63
2019-03-22T06:28:39.380Z,95.63
2019-03-22T06:29:54.359Z,95.63
2019-03-22T06:31:00.705Z,95.63
2019-03-22T06:32:11.360Z,101.25
2019-03-22T06:33:22.518Z,101.25
2019-03-22T06:34:33.187Z,101.25
2019-03-22T06:35:43.864Z,106.88
2019-03-22T06:36:54.548Z,106.88
2019-03-22T06:38:05.710Z,112.50
2019-03-22T06:39:16.374Z,112.50
2019-03-22T06:40:27.054Z,112.50
2019-03-22T06:41:38.221Z,112.50
2019-03-22T06:42:48.895Z,112.50
2019-03-22T06:43:59.557Z,112.50
2019-03-22T06:45:10.232Z,118.13
2019-03-22T06:46:20.901Z,118.13
2019-03-22T06:47:31.591Z,118.13
2019-03-22T06:48:42.257Z,118.13
2019-03-22T06:49:52.935Z,123.75
2019-03-22T06:51:03.617Z,123.75
2019-03-22T06:52:14.321Z,123.75
2019-03-22T06:53:24.995Z,123.75
2019-03-22T06:54:35.670Z,129.38
2019-03-22T06:55:46.347Z,129.38
2019-03-22T06:56:57.053Z,135.00
2019-03-22T06:58:07.737Z,135.00
2019-03-22T06:59:18.914Z,140.63
2019-03-22T07:00:29.603Z,140.63
2019-03-22T07:01:40.287Z,140.63
2019-03-22T07:02:50.972Z,146.25
2019-03-22T07:04:01.648Z,146.25
2019-03-22T07:05:13.576Z,146.25
2019-03-22T07:06:23.641Z,146.25
2019-03-22T07:07:34.835Z,151.88
2019-03-22T07:08:45.518Z,151.88
2019-03-22T07:09:56.208Z,151.88
2019-03-22T07:11:06.898Z,151.88
2019-03-22T07:12:17.580Z,157.50
2019-03-22T07:13:28.261Z,157.50
2019-03-22T07:14:39.438Z,163.13
2019-03-22T07:15:50.376Z,163.13
2019-03-22T07:17:01.691Z,168.75
2019-03-22T07:18:12.808Z,168.75
2019-03-22T07:19:23.986Z,168.75
2019-03-22T07:20:34.691Z,168.75
2019-03-22T07:21:45.388Z,168.75
2019-03-22T07:22:56.109Z,174.38
2019-03-22T07:24:06.797Z,180.00
2019-03-22T07:25:17.990Z,180.00
2019-03-22T07:26:30.087Z,180.00
2019-03-22T07:27:39.452Z,185.63
2019-03-22T07:28:50.154Z,185.63
2019-03-22T07:30:00.865Z,185.63
2019-03-22T07:31:12.069Z,191.25
2019-03-22T07:32:24.730Z,191.25
2019-03-22T07:33:35.929Z,191.25
2019-03-22T07:34:46.638Z,191.25
2019-03-22T07:35:57.847Z,191.25
2019-03-22T07:37:08.552Z,191.25
2019-03-22T07:38:19.262Z,191.25
2019-03-22T07:39:29.967Z,196.88
2019-03-22T07:40:40.690Z,196.88
2019-03-22T07:41:51.405Z,196.88
2019-03-22T07:43:02.615Z,196.88
2019-03-22T07:44:13.340Z,202.50
2019-03-22T07:45:25.072Z,202.50
2019-03-22T07:46:35.774Z,208.13
2019-03-22T07:47:47.010Z,208.13
2019-03-22T07:48:57.720Z,208.13
2019-03-22T07:50:08.930Z,208.13
2019-03-22T07:51:20.160Z,219.38
2019-03-22T07:52:30.880Z,219.38
2019-03-22T07:53:41.600Z,225.00
2019-03-22T07:54:52.331Z,225.00
2019-03-22T07:56:03.630Z,230.63
2019-03-22T07:57:14.870Z,230.63
2019-03-22T07:58:25.596Z,230.63
2019-03-22T07:59:36.334Z,230.63
2019-03-22T08:00:47.631Z,236.25
2019-03-22T08:01:58.856Z,236.25
2019-03-22T08:03:10.100Z,241.88
2019-03-22T08:04:20.824Z,241.88
2019-03-22T08:05:31.565Z,247.50
2019-03-22T08:06:42.794Z,241.88
2019-03-22T08:07:56.036Z,241.88
2019-03-22T08:09:05.257Z,241.88
2019-03-22T08:10:16.496Z,241.88
2019-03-22T08:11:27.298Z,247.50
2019-03-22T08:12:37.999Z,247.50
2019-03-22T08:13:48.726Z,247.50
2019-03-22T08:14:59.628Z,247.50
2019-03-22T08:16:10.864Z,241.88
2019-03-22T08:17:22.123Z,241.88
2019-03-22T08:18:32.878Z,247.50
2019-03-22T08:19:43.614Z,253.13
2019-03-22T08:20:54.366Z,258.75
2019-03-22T08:22:05.572Z,253.13
2019-03-22T08:23:16.820Z,258.75
2019-03-22T08:24:27.599Z,258.75
2019-03-22T08:25:38.829Z,258.75
2019-03-22T08:26:49.590Z,258.75
2019-03-22T08:28:00.857Z,258.75
2019-03-22T08:29:11.621Z,258.75
2019-03-22T08:30:22.910Z,258.75
2019-03-22T08:31:34.139Z,258.75
2019-03-22T08:32:44.899Z,264.38
2019-03-22T08:33:56.158Z,270.00
2019-03-22T08:35:06.917Z,270.00
2019-03-22T08:36:17.740Z,281.25
2019-03-22T08:37:28.477Z,286.88
2019-03-22T08:38:39.763Z,292.50
2019-03-22T08:39:50.516Z,303.75
2019-03-22T08:41:01.789Z,315.00
2019-03-22T08:42:12.563Z,315.00
2019-03-22T08:43:23.908Z,320.63
2019-03-22T08:44:35.134Z,331.88
2019-03-22T08:45:45.903Z,343.13
2019-03-22T08:46:56.700Z,354.38
2019-03-22T08:48:07.657Z,365.63
2019-03-22T08:49:18.950Z,388.13
2019-03-22T08:50:30.222Z,393.75
2019-03-22T08:51:40.994Z,405.00
2019-03-22T08:52:51.841Z,433.13
2019-03-22T08:54:03.096Z,438.75
2019-03-22T08:55:14.232Z,450.00
2019-03-22T08:56:25.026Z,455.63
2019-03-22T08:57:35.806Z,466.88
2019-03-22T08:58:47.115Z,478.13
2019-03-22T08:59:58.436Z,483.75
2019-03-22T09:01:09.707Z,489.38
2019-03-22T09:02:20.554Z,500.63
2019-03-22T09:03:31.405Z,517.50
2019-03-22T09:04:42.220Z,528.75
2019-03-22T09:05:53.007Z,540.00
2019-03-22T09:07:03.855Z,551.25
2019-03-22T09:08:16.320Z,556.88
2019-03-22T09:09:27.055Z,573.75
2019-03-22T09:10:38.435Z,585.00
2019-03-22T09:11:49.223Z,601.88
2019-03-22T09:13:00.524Z,607.50
2019-03-22T09:14:11.448Z,630.00
2019-03-22T09:15:22.749Z,646.88
2019-03-22T09:16:34.123Z,658.13
2019-03-22T09:17:45.648Z,669.38
2019-03-22T09:18:56.576Z,680.63
2019-03-22T09:20:07.474Z,703.13
2019-03-22T09:21:18.308Z,708.75
2019-03-22T09:22:29.271Z,720.00
2019-03-22T09:23:40.091Z,725.63
2019-03-22T09:24:50.971Z,742.50
2019-03-22T09:26:01.874Z,759.38
2019-03-22T09:27:12.811Z,787.50
2019-03-22T09:28:23.700Z,804.38
2019-03-22T09:29:34.679Z,843.75
2019-03-22T09:30:46.569Z,905.63
2019-03-22T09:31:57.498Z,1023.75
2019-03-22T09:33:08.456Z,1192.50
2019-03-22T09:34:19.403Z,1175.63
2019-03-22T09:35:30.349Z,995.63
2019-03-22T09:36:41.331Z,1074.38
2019-03-22T09:37:52.809Z,1147.50
2019-03-22T09:39:04.335Z,1068.75
2019-03-22T09:40:15.302Z,978.75
2019-03-22T09:41:26.271Z,916.88
2019-03-22T09:42:37.341Z,1012.50
2019-03-22T09:43:48.320Z,956.25
2019-03-22T09:44:59.301Z,1035.00
2019-03-22T09:46:10.385Z,1074.38
2019-03-22T09:47:21.900Z,995.63
2019-03-22T09:48:33.468Z,950.63
2019-03-22T09:49:44.412Z,1012.50
2019-03-22T09:50:55.443Z,984.38
2019-03-22T09:52:06.538Z,1018.13
2019-03-22T09:53:17.547Z,1063.13
2019-03-22T09:54:28.602Z,1057.50
2019-03-22T09:55:39.641Z,1063.13
2019-03-22T09:56:50.701Z,1051.88
2019-03-22T09:58:01.761Z,1170.00
2019-03-22T09:59:12.825Z,1198.13
2019-03-22T10:00:23.922Z,1355.63
2019-03-22T10:01:34.980Z,1316.25
2019-03-22T10:02:46.613Z,1310.63
2019-03-22T10:03:57.712Z,1288.13
2019-03-22T10:05:08.848Z,1288.13
2019-03-22T10:06:20.427Z,1254.38
2019-03-22T10:07:31.579Z,1254.38
2019-03-22T10:08:42.688Z,1215.00
2019-03-22T10:09:53.867Z,1192.50
2019-03-22T10:11:04.937Z,1428.75
2019-03-22T10:12:16.108Z,1524.38
2019-03-22T10:13:27.253Z,1569.38
2019-03-22T10:14:38.425Z,1530.00
2019-03-22T10:15:49.590Z,1530.00
2019-03-22T10:17:00.781Z,1524.38
2019-03-22T10:18:11.953Z,1456.88
2019-03-22T10:19:23.156Z,1445.63
2019-03-22T10:20:34.371Z,1423.13
2019-03-22T10:21:45.621Z,1344.38
2019-03-22T10:22:56.863Z,1305.00
2019-03-22T10:24:08.646Z,1243.13
2019-03-22T10:25:19.902Z,1215.00
2019-03-22T10:26:31.143Z,1181.25
2019-03-22T10:27:42.364Z,1248.75
2019-03-22T10:28:53.600Z,1243.13
2019-03-22T10:30:04.862Z,1181.25
2019-03-22T10:31:16.078Z,1198.13
2019-03-22T10:32:27.320Z,1203.75
2019-03-22T10:33:38.604Z,1293.75
2019-03-22T10:34:49.801Z,1411.88
2019-03-22T10:36:01.046Z,1417.50
2019-03-22T10:37:12.283Z,1468.13
2019-03-22T10:38:30.867Z,1530.00
2019-03-22T10:39:34.814Z,1462.50
2019-03-22T10:40:46.743Z,1338.75
2019-03-22T10:41:57.909Z,1215.00
2019-03-22T10:43:09.204Z,1192.50
2019-03-22T10:44:20.461Z,1310.63
2019-03-22T10:45:31.785Z,1462.50
2019-03-22T10:46:43.064Z,1490.63
2019-03-22T10:47:54.338Z,1552.50
2019-03-22T10:49:05.658Z,1417.50
2019-03-22T10:50:16.970Z,1350.00
2019-03-22T10:51:28.314Z,1338.75
2019-03-22T10:52:40.096Z,1541.25
2019-03-22T10:53:51.471Z,1468.13
2019-03-22T10:55:17.205Z,1411.88
2019-03-22T10:56:14.698Z,1389.38
2019-03-22T10:57:25.965Z,1524.38
2019-03-22T10:58:37.314Z,1333.13
2019-03-22T10:59:48.663Z,1276.88
2019-03-22T11:01:00.002Z,1485.00
2019-03-22T11:02:11.361Z,1608.75
2019-03-22T11:03:22.706Z,1518.75
2019-03-22T11:04:34.066Z,1383.75
2019-03-22T11:05:45.438Z,1479.38
2019-03-22T11:06:56.814Z,1333.13
2019-03-22T11:08:08.205Z,1186.88
2019-03-22T11:09:19.573Z,1068.75
2019-03-22T11:10:30.940Z,1158.75
2019-03-22T11:11:42.308Z,1350.00
2019-03-22T11:12:53.688Z,1271.25
2019-03-22T11:14:05.060Z,1344.38
2019-03-22T11:15:16.441Z,1625.63
2019-03-22T11:16:27.804Z,1833.75
2019-03-22T11:17:39.194Z,1710.00
2019-03-22T11:18:50.586Z,1620.00
2019-03-22T11:20:01.985Z,1755.00
2019-03-22T11:21:13.402Z,1991.25
2019-03-22T11:22:24.837Z,1884.38
2019-03-22T11:23:36.288Z,1614.38
2019-03-22T11:24:47.736Z,1901.25
2019-03-22T11:26:04.056Z,1968.75
2019-03-22T11:27:10.687Z,1811.25
2019-03-22T11:28:22.179Z,1670.63
2019-03-22T11:29:33.692Z,1811.25
2019-03-22T11:30:45.195Z,1873.13
2019-03-22T11:31:56.741Z,1783.13
2019-03-22T11:33:08.281Z,1591.88
2019-03-22T11:34:19.801Z,1653.75
2019-03-22T11:35:31.338Z,1805.63
2019-03-22T11:36:42.881Z,1816.88
2019-03-22T11:37:54.440Z,1766.25
2019-03-22T11:39:15.118Z,1732.50
2019-03-22T11:40:17.549Z,1833.75
2019-03-22T11:41:29.123Z,1996.88
2019-03-22T11:42:40.705Z,2013.75
2019-03-22T11:43:52.284Z,1968.75
2019-03-22T11:45:03.899Z,2036.25
2019-03-22T11:46:15.507Z,2070.00
2019-03-22T11:47:27.119Z,2036.25
2019-03-22T11:48:38.749Z,2120.63
2019-03-22T11:49:50.375Z,2120.63
2019-03-22T11:51:02.039Z,2115.00
2019-03-22T11:52:13.683Z,2103.75
2019-03-22T11:53:25.356Z,2081.25
2019-03-22T11:54:37.025Z,2002.50
2019-03-22T11:55:48.710Z,2041.88
2019-03-22T11:57:00.389Z,1929.38
2019-03-22T11:58:12.088Z,2064.38
2019-03-22T11:59:23.770Z,1918.13
2019-03-22T12:00:35.464Z,1991.25
2019-03-22T12:01:47.170Z,2188.13
2019-03-22T12:02:58.865Z,2081.25
2019-03-22T12:04:11.907Z,2098.13
2019-03-22T12:05:22.282Z,2120.63
2019-03-22T12:06:33.998Z,2008.13
2019-03-22T12:07:45.712Z,1968.75
2019-03-22T12:08:57.936Z,1856.25
2019-03-22T12:09:29.022Z,1923.75
2019-03-22T12:10:40.749Z,2081.25
2019-03-22T12:11:52.468Z,2030.63
2019-03-22T12:13:04.210Z,2025.00
2019-03-22T12:14:15.943Z,2182.50
2019-03-22T12:15:27.669Z,2154.38
2019-03-22T12:16:39.394Z,2182.50
2019-03-22T12:17:51.139Z,2266.88
2019-03-22T12:19:02.881Z,2238.75
2019-03-22T12:20:14.625Z,2188.13
2019-03-22T12:21:26.840Z,2176.88
2019-03-22T12:22:38.639Z,2115.00
2019-03-22T12:23:50.316Z,2261.25
2019-03-22T12:25:02.057Z,2390.63
2019-03-22T12:26:13.815Z,2306.25
2019-03-22T12:27:25.561Z,2199.38
2019-03-22T12:28:37.310Z,2115.00
2019-03-22T12:29:49.672Z,1715.63
2019-03-22T12:31:01.412Z,2199.38
2019-03-22T12:32:13.154Z,2098.13
2019-03-22T12:33:24.890Z,2115.00
2019-03-22T12:34:36.642Z,1895.63
2019-03-22T12:35:48.389Z,1704.38
2019-03-22T12:37:00.122Z,2002.50
2019-03-22T12:38:11.860Z,2227.50
2019-03-22T12:39:23.618Z,2385.00
2019-03-22T12:40:35.360Z,2407.50
2019-03-22T12:41:47.103Z,2171.25
2019-03-22T12:42:58.837Z,2165.63
2019-03-22T12:44:10.600Z,2598.75
2019-03-22T12:45:22.346Z,2565.00
2019-03-22T12:46:34.112Z,2559.38
2019-03-22T12:47:45.866Z,2587.50
2019-03-22T12:48:57.637Z,2520.00
2019-03-22T12:50:09.411Z,2638.13
2019-03-22T12:51:22.188Z,2632.50
2019-03-22T12:52:33.971Z,2632.50
2019-03-22T12:53:45.751Z,2632.50
2019-03-22T12:54:57.542Z,2722.50
2019-03-22T12:56:09.326Z,2801.25
2019-03-22T12:57:21.127Z,2857.50
2019-03-22T12:58:32.936Z,2913.75
2019-03-22T12:59:44.751Z,2829.38
2019-03-22T13:00:56.572Z,2728.13
2019-03-22T13:02:08.397Z,2666.25
2019-03-22T13:03:20.222Z,2666.25
2019-03-22T13:04:32.345Z,2829.38
2019-03-22T13:05:44.180Z,2891.25
2019-03-22T13:06:56.018Z,2863.13
2019-03-22T13:08:07.826Z,2885.63
2019-03-22T13:09:19.658Z,3065.63
2019-03-22T13:10:31.485Z,3071.25
2019-03-22T13:11:43.322Z,2975.63
2019-03-22T13:12:55.165Z,2947.50
2019-03-22T13:14:06.993Z,2868.75
2019-03-22T13:15:18.827Z,2925.00
2019-03-22T13:16:30.656Z,2992.50
2019-03-22T13:17:42.490Z,2986.88
2019-03-22T13:18:54.331Z,3031.88
2019-03-22T13:20:06.160Z,2958.75
2019-03-22T13:21:18.001Z,3031.88
2019-03-22T13:22:29.828Z,3161.25
2019-03-22T13:23:41.656Z,3031.88
2019-03-22T13:24:53.790Z,2975.63
2019-03-22T13:26:05.622Z,2941.88
2019-03-22T13:27:17.455Z,2925.00
2019-03-22T13:28:29.274Z,3009.38
2019-03-22T13:29:41.101Z,3043.13
2019-03-22T13:30:52.941Z,2936.25
2019-03-22T13:32:05.256Z,2801.25
2019-03-22T13:33:17.067Z,2761.88
2019-03-22T13:34:29.397Z,2700.00
2019-03-22T13:35:41.217Z,2722.50
2019-03-22T13:36:53.046Z,2930.63
2019-03-22T13:38:04.869Z,2801.25
2019-03-22T13:39:16.689Z,2947.50
2019-03-22T13:40:28.512Z,3082.50
2019-03-22T13:41:40.378Z,2925.00
2019-03-22T13:42:52.141Z,2846.25
2019-03-22T13:44:03.958Z,2835.00
2019-03-22T13:45:15.764Z,2745.00
2019-03-22T13:46:27.587Z,2666.25
2019-03-22T13:47:39.403Z,2683.13
2019-03-22T13:48:51.263Z,2497.50
2019-03-22T13:50:03.055Z,2441.25
2019-03-22T13:51:14.871Z,2458.13
2019-03-22T13:52:26.670Z,2266.88
2019-03-22T13:53:38.468Z,2424.38
2019-03-22T13:54:50.284Z,2739.38
2019-03-22T13:56:02.102Z,2761.88
2019-03-22T13:57:13.895Z,2671.88
2019-03-22T13:58:25.698Z,2610.00
2019-03-22T13:59:37.497Z,2666.25
2019-03-22T14:00:49.779Z,2711.25
2019-03-22T14:02:01.574Z,2581.88
2019-03-22T14:03:13.364Z,2559.38
2019-03-22T14:04:25.143Z,2581.88
2019-03-22T14:05:36.941Z,2548.13
2019-03-22T14:06:48.730Z,2452.50
2019-03-22T14:08:00.508Z,2340.00
2019-03-22T14:09:12.300Z,1186.88
2019-03-22T14:10:24.077Z,528.75
2019-03-22T14:11:35.866Z,461.25
2019-03-22T14:12:47.650Z,433.13
2019-03-22T14:13:59.426Z,416.25
2019-03-22T14:15:11.690Z,410.63
2019-03-22T14:16:23.960Z,405.00
2019-03-22T14:17:36.223Z,405.00
2019-03-22T14:18:48.021Z,393.75
2019-03-22T14:19:59.776Z,388.13
2019-03-22T14:21:11.531Z,388.13
2019-03-22T14:22:23.326Z,388.13
2019-03-22T14:23:35.582Z,382.50
2019-03-22T14:24:49.118Z,382.50
2019-03-22T14:25:59.557Z,376.88
2019-03-22T14:27:11.300Z,371.25
2019-03-22T14:28:23.041Z,371.25
2019-03-22T14:29:35.281Z,365.63
2019-03-22T14:30:47.492Z,365.63
2019-03-22T14:31:59.206Z,360.00
2019-03-22T14:33:13.675Z,348.75
2019-03-22T14:34:23.127Z,343.13
2019-03-22T14:35:34.839Z,337.50
2019-03-22T14:36:46.538Z,337.50
2019-03-22T14:37:58.252Z,343.13
2019-03-22T14:39:09.952Z,348.75
2019-03-22T14:40:22.142Z,348.75
2019-03-22T14:41:33.828Z,343.13
2019-03-22T14:42:46.005Z,337.50
2019-03-22T14:43:58.169Z,343.13
2019-03-22T14:45:09.835Z,337.50
2019-03-22T14:46:21.806Z,337.50
2019-03-22T14:47:33.620Z,360.00
2019-03-22T14:48:45.780Z,348.75
2019-03-22T14:49:57.434Z,309.38
2019-03-22T14:51:09.060Z,270.00
2019-03-22T14:52:20.684Z,253.13
2019-03-22T14:53:32.762Z,236.25
2019-03-22T14:54:45.031Z,236.25
2019-03-22T14:55:57.111Z,230.63
2019-03-22T14:57:08.642Z,225.00
2019-03-22T14:58:20.934Z,225.00
2019-03-22T14:59:32.938Z,225.00
2019-03-22T15:00:45.424Z,225.00